createdAt,value
2022-08-10T00:01:08.674Z,4.07
2022-08-10T00:03:35.484Z,3.85
2022-08-10T00:06:02.288Z,4.50
2022-08-10T00:08:29.362Z,4.30
2022-08-10T00:10:57.702Z,4.65
2022-08-10T00:13:26.170Z,4.40
2022-08-10T00:15:55.237Z,4.88
2022-08-10T00:18:35.394Z,5.25
2022-08-10T00:21:10.187Z,4.87
2022-08-10T00:23:38.259Z,4.97
2022-08-10T00:26:06.299Z,4.88
2022-08-10T00:28:33.833Z,4.80
2022-08-10T00:31:01.013Z,5.30
2022-08-10T00:33:28.260Z,4.97
2022-08-10T00:35:55.354Z,4.95
2022-08-10T00:38:22.592Z,4.78
2022-08-10T00:40:49.818Z,4.43
2022-08-10T00:43:23.017Z,4.90
2022-08-10T00:45:59.771Z,4.85
2022-08-10T00:48:31.256Z,5.22
2022-08-10T00:50:59.537Z,5.13
2022-08-10T00:53:29.883Z,4.80
2022-08-10T00:56:35.015Z,4.97
2022-08-10T00:58:45.305Z,4.43
2022-08-10T01:02:08.357Z,4.75
2022-08-10T01:04:40.270Z,4.40
2022-08-10T01:07:21.950Z,4.78
2022-08-10T01:10:19.863Z,4.25
2022-08-10T01:13:24.766Z,5.20
2022-08-10T01:15:59.312Z,4.68
2022-08-10T01:18:44.631Z,5.00
2022-08-10T01:21:54.082Z,4.75
2022-08-10T01:25:03.423Z,5.15
2022-08-10T01:27:55.905Z,4.95
2022-08-10T01:30:27.876Z,4.50
2022-08-10T01:33:03.377Z,5.10
2022-08-10T01:35:38.458Z,5.07
2022-08-10T01:38:10.429Z,5.18
2022-08-10T01:40:41.931Z,5.22
2022-08-10T01:43:10.461Z,4.85
2022-08-10T01:45:45.172Z,4.53
2022-08-10T01:48:28.981Z,4.90
2022-08-10T01:51:03.033Z,4.75
2022-08-10T01:53:40.989Z,4.35
2022-08-10T01:56:14.021Z,4.50
2022-08-10T01:58:42.307Z,4.97
2022-08-10T02:01:16.919Z,4.70
2022-08-10T02:04:04.684Z,4.47
2022-08-10T02:06:39.633Z,4.30
2022-08-10T02:09:08.002Z,4.57
2022-08-10T02:12:06.436Z,4.80
2022-08-10T02:14:33.035Z,4.50
2022-08-10T02:17:58.638Z,5.03
2022-08-10T02:20:05.396Z,5.30
2022-08-10T02:22:46.166Z,4.38
2022-08-10T02:25:42.210Z,5.63
2022-08-10T02:28:03.379Z,5.63
2022-08-10T02:30:31.130Z,4.93
2022-08-10T02:32:59.115Z,5.07
2022-08-10T02:35:29.145Z,5.22
2022-08-10T02:38:17.426Z,4.68
2022-08-10T02:45:02.364Z,5.03
2022-08-10T02:45:21.693Z,5.03
2022-08-10T02:46:47.680Z,5.07
2022-08-10T02:49:26.504Z,5.68
2022-08-10T02:52:06.612Z,5.10
2022-08-10T02:54:39.157Z,4.88
2022-08-10T02:57:20.926Z,5.53
2022-08-10T03:00:00.033Z,4.90
2022-08-10T03:02:30.815Z,5.95
2022-08-10T03:05:03.158Z,4.68
2022-08-10T03:07:44.593Z,5.28
2022-08-10T03:10:33.750Z,5.25
2022-08-10T03:13:03.447Z,5.03
2022-08-10T03:15:34.611Z,5.10
2022-08-10T03:18:02.665Z,5.28
2022-08-10T03:20:39.722Z,5.57
2022-08-10T03:23:19.144Z,5.30
2022-08-10T03:25:53.798Z,5.28
2022-08-10T03:28:24.688Z,4.88
2022-08-10T03:30:52.728Z,4.95
2022-08-10T03:33:21.921Z,5.05
2022-08-10T03:36:40.709Z,5.28
2022-08-10T03:38:37.710Z,4.80
2022-08-10T03:41:08.621Z,5.50
2022-08-10T03:43:36.789Z,5.30
2022-08-10T03:46:07.909Z,5.32
2022-08-10T03:48:48.541Z,5.32
2022-08-10T03:51:18.896Z,6.00
2022-08-10T03:54:04.246Z,5.65
2022-08-10T03:56:36.660Z,5.40
2022-08-10T03:59:05.590Z,5.65
2022-08-10T04:02:43.269Z,5.30
2022-08-10T04:04:24.143Z,5.25
2022-08-10T04:06:54.477Z,6.20
2022-08-10T04:09:23.906Z,5.15
2022-08-10T04:11:50.767Z,5.18
2022-08-10T04:14:38.676Z,5.97
2022-08-10T04:17:04.790Z,4.80
2022-08-10T04:19:41.862Z,5.43
2022-08-10T04:22:16.458Z,6.10
2022-08-10T04:24:46.904Z,5.43
2022-08-10T04:27:15.220Z,5.83
2022-08-10T04:29:43.410Z,5.30
2022-08-10T04:32:14.126Z,5.53
2022-08-10T04:34:44.686Z,5.18
2022-08-10T04:37:13.083Z,5.10
2022-08-10T04:39:40.292Z,4.70
2022-08-10T04:42:07.743Z,4.32
2022-08-10T04:44:34.664Z,4.60
2022-08-10T04:47:01.561Z,5.18
2022-08-10T04:49:55.026Z,5.15
2022-08-10T04:52:16.173Z,4.68
2022-08-10T04:54:43.228Z,4.43
2022-08-10T04:57:10.689Z,4.43
2022-08-10T04:59:37.615Z,4.85
2022-08-10T05:02:21.623Z,4.50
2022-08-10T05:04:51.528Z,4.35
2022-08-10T05:07:18.774Z,4.63
2022-08-10T05:10:02.866Z,4.63
2022-08-10T05:12:36.060Z,4.50
2022-08-10T05:15:07.640Z,4.78
2022-08-10T05:17:36.011Z,4.10
2022-08-10T05:20:08.387Z,4.72
2022-08-10T05:22:38.545Z,4.53
2022-08-10T05:25:07.272Z,4.63
2022-08-10T05:27:34.470Z,4.28
2022-08-10T05:30:03.332Z,3.80
2022-08-10T05:32:34.424Z,4.68
2022-08-10T05:35:20.701Z,4.45
2022-08-10T05:38:11.628Z,4.65
2022-08-10T05:40:38.439Z,4.22
2022-08-10T05:43:05.659Z,4.68
2022-08-10T05:45:32.669Z,4.35
2022-08-10T05:48:55.007Z,4.22
2022-08-10T05:50:46.878Z,4.55
2022-08-10T05:53:59.788Z,3.83
2022-08-10T05:56:03.202Z,5.05
2022-08-10T05:58:30.306Z,3.83
2022-08-10T06:00:59.018Z,3.67
2022-08-10T06:03:34.573Z,4.47
2022-08-10T06:06:04.228Z,4.30
2022-08-10T06:08:33.731Z,4.45
2022-08-10T06:12:24.529Z,4.68
2022-08-10T06:14:13.829Z,4.45
2022-08-10T06:16:44.245Z,4.85
2022-08-10T06:19:15.362Z,4.63
2022-08-10T06:21:53.628Z,4.00
2022-08-10T06:24:31.174Z,4.13
2022-08-10T06:26:59.436Z,4.63
2022-08-10T06:29:30.774Z,4.13
2022-08-10T06:31:59.678Z,3.80
2022-08-10T06:34:39.798Z,4.30
2022-08-10T06:37:09.742Z,4.35
2022-08-10T06:39:37.453Z,3.78
2022-08-10T06:42:15.966Z,3.72
2022-08-10T06:44:55.599Z,3.47
2022-08-10T06:47:33.810Z,3.50
2022-08-10T06:50:10.455Z,4.13
2022-08-10T06:52:38.552Z,3.20
2022-08-10T06:55:10.151Z,3.38
2022-08-10T06:57:40.346Z,3.50
2022-08-10T07:00:08.742Z,2.90
2022-08-10T07:02:55.011Z,3.42
2022-08-10T07:05:28.708Z,3.72
2022-08-10T07:07:59.278Z,2.97
2022-08-10T07:10:45.716Z,2.80
2022-08-10T07:14:16.951Z,3.17
2022-08-10T07:16:08.127Z,2.50
2022-08-10T07:18:36.536Z,2.08
2022-08-10T07:21:05.728Z,2.80
2022-08-10T07:23:58.509Z,2.28
2022-08-10T07:26:25.062Z,2.25
2022-08-10T07:28:52.792Z,2.58
2022-08-10T07:31:55.236Z,2.47
2022-08-10T07:34:11.591Z,2.90
2022-08-10T07:36:40.680Z,2.20
2022-08-10T07:39:09.603Z,2.10
2022-08-10T07:41:41.268Z,2.25
2022-08-10T07:44:12.449Z,2.28
2022-08-10T07:46:45.785Z,2.40
2022-08-10T07:49:19.823Z,2.78
2022-08-10T07:51:54.999Z,2.30
2022-08-10T07:54:25.156Z,1.75
2022-08-10T07:56:55.756Z,2.28
2022-08-10T07:59:37.840Z,1.90
2022-08-10T08:02:23.919Z,2.35
2022-08-10T08:04:51.110Z,2.40
2022-08-10T08:07:21.423Z,1.88
2022-08-10T08:09:58.107Z,2.22
2022-08-10T08:12:31.427Z,2.45
2022-08-10T08:15:14.794Z,2.10
2022-08-10T08:17:59.780Z,2.00
2022-08-10T08:20:29.081Z,2.28
2022-08-10T08:24:09.315Z,2.33
2022-08-10T08:25:46.330Z,2.08
2022-08-10T08:28:14.503Z,2.00
2022-08-10T08:30:46.938Z,2.13
2022-08-10T08:33:19.707Z,1.80
2022-08-10T08:35:48.480Z,1.88
2022-08-10T08:38:31.914Z,1.70
2022-08-10T08:41:18.185Z,2.10
2022-08-10T08:43:56.866Z,2.10
2022-08-10T08:46:39.529Z,1.90
2022-08-10T08:49:41.411Z,2.13
2022-08-10T08:52:53.725Z,1.90
2022-08-10T08:56:04.321Z,1.88
2022-08-10T08:58:22.238Z,1.65
2022-08-10T09:01:23.832Z,2.13
2022-08-10T09:04:22.120Z,2.15
2022-08-10T09:08:00.730Z,1.85
2022-08-10T09:10:24.613Z,1.90
2022-08-10T09:12:57.262Z,1.80
2022-08-10T09:15:39.877Z,1.90
2022-08-10T09:18:24.048Z,1.83
2022-08-10T09:21:27.326Z,1.77
2022-08-10T09:24:23.668Z,1.33
2022-08-10T09:26:53.078Z,1.73
2022-08-10T09:29:26.566Z,1.52
2022-08-10T09:36:19.265Z,1.90
2022-08-10T09:36:23.158Z,1.80
2022-08-10T09:38:58.817Z,2.20
2022-08-10T09:41:39.831Z,1.60
2022-08-10T09:44:34.405Z,1.48
2022-08-10T09:48:01.024Z,1.50
2022-08-10T09:51:05.375Z,1.30
2022-08-10T09:53:44.030Z,1.40
2022-08-10T09:56:21.475Z,1.30
2022-08-10T09:59:26.901Z,1.00
2022-08-10T10:02:02.530Z,1.50
2022-08-10T10:04:58.857Z,1.10
2022-08-10T10:07:28.141Z,1.40
2022-08-10T10:10:08.956Z,1.30
2022-08-10T10:12:54.027Z,1.50
2022-08-10T10:15:24.670Z,1.63
2022-08-10T10:18:07.507Z,1.60
2022-08-10T10:20:52.853Z,1.40
2022-08-10T10:24:19.763Z,1.25
2022-08-10T10:27:16.083Z,1.45
2022-08-10T10:30:01.760Z,1.70
2022-08-10T10:32:32.083Z,1.35
2022-08-10T10:35:13.534Z,1.45
2022-08-10T10:38:01.174Z,1.40
2022-08-10T10:40:35.491Z,1.60
2022-08-10T10:43:30.081Z,1.83
2022-08-10T10:46:13.026Z,1.75
2022-08-10T10:48:57.190Z,1.60
2022-08-10T10:51:27.386Z,1.45
2022-08-10T10:54:16.296Z,1.55
2022-08-10T10:57:13.627Z,1.40
2022-08-10T11:00:08.801Z,1.30
2022-08-10T11:03:23.166Z,1.33
2022-08-10T11:06:09.864Z,1.33
2022-08-10T11:08:43.504Z,1.35
2022-08-10T11:12:00.858Z,1.95
2022-08-10T11:14:26.037Z,1.30
2022-08-10T11:17:02.853Z,1.55
2022-08-10T11:20:00.438Z,1.75
2022-08-10T11:22:40.268Z,1.02
2022-08-10T11:25:20.308Z,1.52
2022-08-10T11:27:55.325Z,1.50
2022-08-10T11:30:44.250Z,1.30
2022-08-10T11:33:33.012Z,1.60
2022-08-10T11:36:20.109Z,1.20
2022-08-10T11:39:14.100Z,1.20
2022-08-10T11:42:08.736Z,1.40
2022-08-10T11:44:49.169Z,1.55
2022-08-10T11:47:37.233Z,1.40
2022-08-10T11:50:20.103Z,1.58
2022-08-10T11:53:24.450Z,1.50
2022-08-10T11:55:57.221Z,1.52
2022-08-10T11:58:47.564Z,1.58
2022-08-10T12:01:20.469Z,1.35
2022-08-10T12:03:50.423Z,1.08
2022-08-10T12:06:39.333Z,1.50
2022-08-10T12:10:07.866Z,1.73
2022-08-10T12:11:59.250Z,1.42
2022-08-10T12:14:34.608Z,1.10
2022-08-10T12:17:17.092Z,1.20
2022-08-10T12:19:59.254Z,1.10
2022-08-10T12:22:50.366Z,1.40
2022-08-10T12:25:54.933Z,1.05
2022-08-10T12:28:49.531Z,1.17
2022-08-10T12:31:57.228Z,1.38
2022-08-10T12:34:50.942Z,1.70
2022-08-10T12:37:24.403Z,1.55
2022-08-10T12:44:05.488Z,1.20
2022-08-10T12:46:28.482Z,1.30
2022-08-10T12:48:58.269Z,1.27
2022-08-10T12:51:31.212Z,1.40
2022-08-10T12:54:10.594Z,1.52
2022-08-10T12:56:40.658Z,1.60
2022-08-10T12:59:10.899Z,1.33
2022-08-10T13:02:10.094Z,1.15
2022-08-10T13:04:30.387Z,1.15
2022-08-10T13:07:00.610Z,1.40
2022-08-10T13:09:29.013Z,1.20
2022-08-10T13:12:44.562Z,1.40
2022-08-10T13:14:58.050Z,1.40
2022-08-10T13:17:38.872Z,1.13
2022-08-10T13:20:29.906Z,1.50
2022-08-10T13:23:01.315Z,1.47
2022-08-10T13:25:32.067Z,2.10
2022-08-10T13:28:36.460Z,1.60
2022-08-10T13:30:54.412Z,1.75
2022-08-10T13:34:41.096Z,1.83
2022-08-10T13:36:15.921Z,1.90
2022-08-10T13:38:48.738Z,1.50
2022-08-10T13:41:17.688Z,1.40
2022-08-10T13:43:53.079Z,1.38
2022-08-10T13:46:22.962Z,1.08
2022-08-10T13:48:53.707Z,1.52
2022-08-10T13:51:57.346Z,1.83
2022-08-10T13:54:20.625Z,1.40
2022-08-10T13:56:50.223Z,1.20
2022-08-10T13:59:19.250Z,1.60
2022-08-10T14:01:52.006Z,1.30
2022-08-10T14:04:19.803Z,1.77
2022-08-10T14:06:59.066Z,1.33
2022-08-10T14:09:32.228Z,1.80
2022-08-10T14:12:00.991Z,1.48
2022-08-10T14:14:30.527Z,1.60
2022-08-10T14:16:58.690Z,1.30
2022-08-10T14:19:33.061Z,1.40
2022-08-10T14:22:04.141Z,1.48
2022-08-10T14:24:32.650Z,1.77
2022-08-10T14:27:02.527Z,1.10
2022-08-10T14:29:31.335Z,1.38
2022-08-10T14:32:02.421Z,0.98
2022-08-10T14:37:29.912Z,1.88
2022-08-10T14:40:06.832Z,1.50
2022-08-10T14:42:47.962Z,2.15
2022-08-10T14:45:34.786Z,1.50
2022-08-10T14:48:13.777Z,1.70
2022-08-10T14:50:55.154Z,1.70
2022-08-10T14:53:29.363Z,1.60
2022-08-10T14:56:27.180Z,2.03
2022-08-10T14:58:59.110Z,1.60
2022-08-10T15:02:00.086Z,1.70
2022-08-10T15:04:24.971Z,1.60
2022-08-10T15:06:59.861Z,1.63
2022-08-10T15:10:00.102Z,1.80
2022-08-10T15:12:27.036Z,1.67
2022-08-10T15:15:00.824Z,1.80
2022-08-10T15:17:37.495Z,2.03
2022-08-10T15:20:20.506Z,2.10
2022-08-10T15:22:55.612Z,2.20
2022-08-10T15:25:26.115Z,2.00
2022-08-10T15:28:08.224Z,1.80
2022-08-10T15:30:39.663Z,1.65
2022-08-10T15:34:03.403Z,1.60
2022-08-10T15:36:37.266Z,1.40
2022-08-10T15:39:16.475Z,1.65
2022-08-10T15:42:05.123Z,1.45
2022-08-10T15:44:37.396Z,1.70
2022-08-10T15:47:08.921Z,1.65
2022-08-10T15:50:07.581Z,1.90
2022-08-10T15:53:01.320Z,1.90
2022-08-10T15:55:52.833Z,2.05
2022-08-10T15:58:38.767Z,1.80
2022-08-10T16:02:12.981Z,1.95
2022-08-10T16:04:19.298Z,2.05
2022-08-10T16:06:55.673Z,2.20
2022-08-10T16:10:10.503Z,1.50
2022-08-10T16:12:32.572Z,2.15
2022-08-10T16:15:08.952Z,1.77
2022-08-10T16:17:54.861Z,1.80
2022-08-10T16:20:53.051Z,2.95
2022-08-10T16:23:28.758Z,2.30
2022-08-10T16:26:04.566Z,1.83
2022-08-10T16:28:44.416Z,2.45
2022-08-10T16:31:19.346Z,1.98
2022-08-10T16:33:53.136Z,1.80
2022-08-10T16:36:29.224Z,2.33
2022-08-10T16:38:57.677Z,2.42
2022-08-10T16:42:04.787Z,2.22
2022-08-10T16:44:18.061Z,2.40
2022-08-10T16:46:46.385Z,1.88
2022-08-10T16:49:16.495Z,2.38
2022-08-10T16:51:48.042Z,2.28
2022-08-10T16:54:22.388Z,2.50
2022-08-10T16:56:53.305Z,1.88
2022-08-10T16:59:24.702Z,2.67
2022-08-10T17:01:54.422Z,2.13
2022-08-10T17:04:23.356Z,2.63
2022-08-10T17:06:59.026Z,2.20
2022-08-10T17:09:33.158Z,2.20
2022-08-10T17:12:10.760Z,2.30
2022-08-10T17:14:41.610Z,2.05
2022-08-10T17:17:13.900Z,2.13
2022-08-10T17:19:43.547Z,2.00
2022-08-10T17:22:16.917Z,2.47
2022-08-10T17:24:51.091Z,1.80
2022-08-10T17:28:04.318Z,2.05
2022-08-10T17:30:16.200Z,1.92
2022-08-10T17:33:03.511Z,2.38
2022-08-10T17:35:36.494Z,2.25
2022-08-10T17:38:12.722Z,2.33
2022-08-10T17:41:03.636Z,1.88
2022-08-10T17:43:58.201Z,2.10
2022-08-10T17:46:23.850Z,2.30
2022-08-10T17:48:53.547Z,2.20
2022-08-10T17:51:25.356Z,2.13
2022-08-10T17:53:58.412Z,2.33
2022-08-10T17:56:26.908Z,2.33
2022-08-10T17:59:01.704Z,2.00
2022-08-10T18:01:40.313Z,2.22
2022-08-10T18:04:22.419Z,1.98
2022-08-10T18:06:54.747Z,2.75
2022-08-10T18:09:29.440Z,2.42
2022-08-10T18:12:01.233Z,2.15
2022-08-10T18:14:32.022Z,2.78
2022-08-10T18:17:06.194Z,2.10
2022-08-10T18:19:34.510Z,2.30
2022-08-10T18:22:03.524Z,2.15
2022-08-10T18:24:30.706Z,2.40
2022-08-10T18:27:02.207Z,2.08
2022-08-10T18:29:31.322Z,2.20
2022-08-10T18:32:01.017Z,2.40
2022-08-10T18:34:31.553Z,2.03
2022-08-10T18:37:00.818Z,2.35
2022-08-10T18:39:32.184Z,2.50
2022-08-10T18:42:09.815Z,2.38
2022-08-10T18:44:42.459Z,2.40
2022-08-10T18:47:18.007Z,2.58
2022-08-10T18:50:01.383Z,2.65
2022-08-10T18:52:32.782Z,2.78
2022-08-10T18:55:14.348Z,2.28
2022-08-10T18:58:31.400Z,2.60
2022-08-10T19:01:35.762Z,2.53
2022-08-10T19:04:23.836Z,2.90
2022-08-10T19:07:05.766Z,2.35
2022-08-10T19:10:29.849Z,2.80
2022-08-10T19:13:21.897Z,2.70
2022-08-10T19:16:06.955Z,2.95
2022-08-10T19:18:42.154Z,2.53
2022-08-10T19:21:30.834Z,2.47
2022-08-10T19:24:11.991Z,2.78
2022-08-10T19:26:49.081Z,2.50
2022-08-10T19:30:10.780Z,2.90
2022-08-10T19:32:43.877Z,2.75
2022-08-10T19:35:19.440Z,2.60
2022-08-10T19:38:00.667Z,2.67
2022-08-10T19:40:44.318Z,2.78
2022-08-10T19:43:59.125Z,2.60
2022-08-10T19:46:27.487Z,3.35
2022-08-10T19:49:01.176Z,2.58
2022-08-10T19:51:57.258Z,2.80
2022-08-10T19:54:42.145Z,2.75
2022-08-10T19:57:17.999Z,3.58
2022-08-10T20:00:06.464Z,3.13
2022-08-10T20:02:57.059Z,3.28
2022-08-10T20:05:35.512Z,3.17
2022-08-10T20:08:28.007Z,2.85
2022-08-10T20:11:02.951Z,3.00
2022-08-10T20:13:29.845Z,3.33
2022-08-10T20:16:15.774Z,3.40
2022-08-10T20:18:48.779Z,3.05
2022-08-10T20:21:42.141Z,3.05
2022-08-10T20:24:11.517Z,3.47
2022-08-10T20:26:49.077Z,3.30
2022-08-10T20:29:57.981Z,2.85
2022-08-10T20:32:35.347Z,3.30
2022-08-10T20:35:09.954Z,4.18
2022-08-10T20:38:04.099Z,4.38
2022-08-10T20:40:34.885Z,3.13
2022-08-10T20:43:24.257Z,3.40
2022-08-10T20:46:12.990Z,3.80
2022-08-10T20:49:10.387Z,3.63
2022-08-10T20:51:58.089Z,3.75
2022-08-10T20:54:34.893Z,3.85
2022-08-10T20:57:55.135Z,3.40
2022-08-10T21:00:13.742Z,3.17
2022-08-10T21:03:07.111Z,3.53
2022-08-10T21:05:52.971Z,3.20
2022-08-10T21:08:35.725Z,3.40
2022-08-10T21:14:11.908Z,3.88
2022-08-10T21:17:06.966Z,4.03
2022-08-10T21:19:55.718Z,3.30
2022-08-10T21:22:29.338Z,3.15
2022-08-10T21:25:03.271Z,3.60
2022-08-10T21:27:59.363Z,3.13
2022-08-10T21:30:55.298Z,3.40
2022-08-10T21:33:34.516Z,3.22
2022-08-10T21:36:14.086Z,3.92
2022-08-10T21:38:51.568Z,3.55
2022-08-10T21:41:56.908Z,2.97
2022-08-10T21:45:21.999Z,4.45
2022-08-10T21:49:00.902Z,4.05
2022-08-10T21:52:07.473Z,4.13
2022-08-10T21:55:08.904Z,3.90
2022-08-10T21:58:22.304Z,3.90
2022-08-10T22:01:39.817Z,3.70
2022-08-10T22:04:26.876Z,4.47
2022-08-10T22:07:16.923Z,4.22
2022-08-10T22:10:04.876Z,4.30
2022-08-10T22:13:03.566Z,4.03
2022-08-10T22:16:10.634Z,4.45
2022-08-10T22:19:02.288Z,3.92
2022-08-10T22:21:57.367Z,4.38
2022-08-10T22:25:16.568Z,3.67
2022-08-10T22:28:07.516Z,4.30
2022-08-10T22:31:30.726Z,3.88
2022-08-10T22:34:33.311Z,4.10
2022-08-10T22:37:33.341Z,3.70
2022-08-10T22:40:42.077Z,4.13
2022-08-10T22:43:37.627Z,3.42
2022-08-10T22:46:42.041Z,3.42
2022-08-10T22:49:10.111Z,3.53
2022-08-10T22:51:51.986Z,3.65
2022-08-10T22:57:32.789Z,3.60
2022-08-10T23:00:10.605Z,3.78
2022-08-10T23:02:38.877Z,3.60
2022-08-10T23:05:10.803Z,3.55
2022-08-10T23:07:58.400Z,3.40
2022-08-10T23:10:29.232Z,3.65
2022-08-10T23:13:07.659Z,3.55
2022-08-10T23:15:59.704Z,3.83
2022-08-10T23:21:20.569Z,4.35
2022-08-10T23:23:49.818Z,4.15
2022-08-10T23:26:25.085Z,4.43
2022-08-10T23:28:59.166Z,3.63
2022-08-10T23:34:28.593Z,4.03
2022-08-10T23:36:59.121Z,4.30
2022-08-10T23:39:36.428Z,4.27
2022-08-10T23:42:08.070Z,4.15
2022-08-10T23:44:40.785Z,4.30
2022-08-10T23:47:09.904Z,3.95
2022-08-10T23:49:38.887Z,4.15
2022-08-10T23:52:12.237Z,3.80
2022-08-10T23:54:50.156Z,3.97
2022-08-10T23:57:21.136Z,3.83
2022-08-10T23:59:52.920Z,3.60
